Time;durP1;ratioP1;P1;durP2;ratioP2;P2;SDS_P1;SDS_P2;PMS_P1;PMS_P2;Temp;Humidity;BMP_temperature;BMP_pressure;BME280_temperature;BME280_humidity;BME280_pressure;Samples;Min_cycle;Max_cycle;Signal;HPM_P1;HPM_P2
2023/01/31 00:01:20;;;;;;;5.30;3.90;;;2.50;99.90;;;;;;5050118;28;20223;-77
2023/01/31 00:03:47;;;;;;;4.95;3.50;;;2.40;99.90;;;;;;5049061;28;20556;-77
2023/01/31 00:06:14;;;;;;;6.82;3.95;;;2.50;99.90;;;;;;5048849;28;20177;-77
2023/01/31 00:08:40;;;;;;;10.73;4.03;;;2.50;99.90;;;;;;5049802;28;20190;-77
2023/01/31 00:11:06;;;;;;;14.52;4.07;;;2.50;99.90;;;;;;5048580;28;20271;-77
2023/01/31 00:13:32;;;;;;;8.20;4.83;;;2.50;99.90;;;;;;5049860;28;20668;-77
2023/01/31 00:15:58;;;;;;;8.23;4.10;;;2.50;99.90;;;;;;5048797;28;20450;-78
2023/01/31 00:18:23;;;;;;;7.70;3.85;;;2.50;99.90;;;;;;5050016;28;20185;-78
2023/01/31 00:20:49;;;;;;;3.67;3.33;;;2.50;99.90;;;;;;5049588;28;20206;-77
2023/01/31 00:23:15;;;;;;;4.67;3.57;;;2.50;99.90;;;;;;5049594;28;20579;-77
2023/01/31 00:25:40;;;;;;;7.67;3.80;;;2.50;99.90;;;;;;5049862;28;20177;-77
2023/01/31 00:28:06;;;;;;;10.13;4.17;;;2.50;99.90;;;;;;5049886;28;20243;-77
2023/01/31 00:30:32;;;;;;;3.27;2.93;;;2.50;99.90;;;;;;5048545;28;20227;-77
2023/01/31 00:32:57;;;;;;;7.40;3.07;;;2.50;99.90;;;;;;5050572;28;20316;-77
2023/01/31 00:35:23;;;;;;;6.40;3.67;;;2.50;99.90;;;;;;5053934;28;20189;-77
2023/01/31 00:37:48;;;;;;;4.27;3.87;;;2.50;99.90;;;;;;5035772;28;20199;-77
2023/01/31 00:40:14;;;;;;;4.53;3.57;;;2.50;99.90;;;;;;5052615;28;20216;-78
2023/01/31 00:42:40;;;;;;;6.37;3.57;;;2.50;99.90;;;;;;5052516;28;20192;-78
2023/01/31 00:45:06;;;;;;;5.83;3.83;;;2.50;99.90;;;;;;5036908;28;20258;-78
2023/01/31 00:47:31;;;;;;;4.53;3.53;;;2.50;99.90;;;;;;5035834;28;20181;-78
2023/01/31 00:49:57;;;;;;;5.30;3.53;;;2.40;99.90;;;;;;5052519;28;20206;-78
2023/01/31 00:52:23;;;;;;;4.67;3.20;;;2.50;99.90;;;;;;5053500;28;20196;-78
2023/01/31 00:54:48;;;;;;;14.43;5.53;;;2.40;99.90;;;;;;5052075;28;20188;-77
2023/01/31 00:57:14;;;;;;;4.60;3.43;;;2.40;99.90;;;;;;5052011;28;20192;-77
2023/01/31 00:59:39;;;;;;;7.30;3.50;;;2.40;99.90;;;;;;5053121;28;20638;-77
2023/01/31 01:02:05;;;;;;;4.83;3.60;;;2.40;99.90;;;;;;5051749;28;20222;-77
2023/01/31 01:04:30;;;;;;;5.40;3.60;;;2.40;99.90;;;;;;5053190;28;20647;-77
2023/01/31 01:06:56;;;;;;;6.70;3.50;;;2.40;99.90;;;;;;5053408;28;20180;-78
2023/01/31 01:09:22;;;;;;;10.20;4.40;;;2.40;99.90;;;;;;5035170;28;20303;-77
2023/01/31 01:11:48;;;;;;;8.03;4.17;;;2.40;99.90;;;;;;5051840;28;20647;-78
2023/01/31 01:14:14;;;;;;;8.70;4.00;;;2.40;99.90;;;;;;5055037;28;20948;-80
2023/01/31 01:16:41;;;;;;;5.07;3.55;;;2.40;99.90;;;;;;5055099;28;20199;-80
2023/01/31 01:19:11;;;;;;;4.55;3.50;;;2.40;99.90;;;;;;5055042;28;20207;-80
2023/01/31 01:21:37;;;;;;;7.20;4.20;;;2.30;99.90;;;;;;5053385;28;20205;-79
2023/01/31 01:24:06;;;;;;;7.00;3.83;;;2.30;99.90;;;;;;5053477;28;20190;-79
2023/01/31 01:26:33;;;;;;;7.97;3.47;;;2.30;99.90;;;;;;5054950;28;20182;-79
2023/01/31 01:29:01;;;;;;;5.50;3.15;;;2.20;99.90;;;;;;5037065;28;20193;-79
2023/01/31 01:31:30;;;;;;;4.20;3.42;;;2.20;99.90;;;;;;5053590;28;20760;-76
2023/01/31 01:33:58;;;;;;;7.53;4.13;;;2.10;99.90;;;;;;5052658;28;20186;-76
2023/01/31 01:36:24;;;;;;;6.13;3.83;;;2.20;99.90;;;;;;5051055;28;20281;-76
2023/01/31 01:38:50;;;;;;;8.38;3.90;;;2.10;99.90;;;;;;5052284;28;20640;-77
2023/01/31 01:41:17;;;;;;;5.30;3.72;;;2.10;99.90;;;;;;5052378;28;20200;-76
2023/01/31 01:43:53;;;;;;;10.95;4.15;;;2.10;99.90;;;;;;5051942;28;20192;-77
2023/01/31 01:46:42;;;;;;;8.27;3.63;;;2.00;99.90;;;;;;5052292;28;20719;-77
2023/01/31 01:49:18;;;;;;;4.10;3.35;;;2.00;99.90;;;;;;5050628;28;20188;-77
2023/01/31 01:51:46;;;;;;;10.07;3.05;;;1.90;99.90;;;;;;5052037;28;20581;-76
2023/01/31 01:54:21;;;;;;;8.88;4.00;;;1.90;99.90;;;;;;5052196;28;20179;-76
2023/01/31 01:56:51;;;;;;;9.25;3.80;;;1.90;99.90;;;;;;5052170;28;20191;-80
2023/01/31 01:59:21;;;;;;;7.75;3.33;;;1.90;99.90;;;;;;5052151;28;20261;-78
2023/01/31 02:01:49;;;;;;;9.85;4.05;;;1.90;99.90;;;;;;5052431;28;20220;-79
2023/01/31 02:04:21;;;;;;;7.60;3.55;;;1.90;99.90;;;;;;5052809;28;20190;-79
2023/01/31 02:06:47;;;;;;;5.70;2.90;;;1.90;99.90;;;;;;5054077;28;20182;-79
2023/01/31 02:09:24;;;;;;;8.05;3.47;;;1.90;99.90;;;;;;5052172;28;20303;-79
2023/01/31 02:11:50;;;;;;;9.98;3.78;;;1.90;99.90;;;;;;5053561;28;20207;-79
2023/01/31 02:14:18;;;;;;;6.55;3.30;;;1.90;99.90;;;;;;5052405;28;20206;-78
2023/01/31 02:16:43;;;;;;;6.53;3.70;;;2.00;99.90;;;;;;5051672;28;20218;-76
2023/01/31 02:19:41;;;;;;;8.00;3.90;;;2.00;99.90;;;;;;5051588;28;20243;-76
2023/01/31 02:22:37;;;;;;;9.57;3.92;;;2.00;99.90;;;;;;5051622;28;20622;-77
2023/01/31 02:25:39;;;;;;;4.97;3.05;;;2.00;99.90;;;;;;5036635;28;20193;-76
2023/01/31 02:28:23;;;;;;;6.72;2.80;;;2.00;99.90;;;;;;5049997;28;20183;-76
2023/01/31 02:31:17;;;;;;;13.00;3.08;;;2.00;99.90;;;;;;5049887;28;20237;-76
2023/01/31 02:33:51;;;;;;;6.20;3.50;;;2.10;99.90;;;;;;5049996;28;20720;-76
2023/01/31 02:39:54;;;;;;;9.05;3.95;;;2.00;99.90;;;;;;5050883;28;20207;-76
2023/01/31 02:42:27;;;;;;;5.45;2.92;;;2.00;99.90;;;;;;5050841;28;20740;-76
2023/01/31 02:44:59;;;;;;;9.48;3.55;;;2.00;99.90;;;;;;5050707;28;20181;-76
2023/01/31 02:47:39;;;;;;;3.78;2.80;;;2.00;99.90;;;;;;5049178;28;20198;-76
2023/01/31 02:50:38;;;;;;;7.65;4.18;;;2.00;99.90;;;;;;5050771;28;20218;-76
2023/01/31 02:53:33;;;;;;;4.30;3.58;;;2.00;99.90;;;;;;5048352;28;20227;-76
2023/01/31 02:56:23;;;;;;;6.60;3.63;;;2.00;99.90;;;;;;5046450;28;20196;-76
2023/01/31 02:59:15;;;;;;;6.20;2.90;;;1.90;99.90;;;;;;5049205;28;20212;-76
2023/01/31 03:01:54;;;;;;;7.38;3.00;;;1.90;99.90;;;;;;5050573;28;20217;-76
2023/01/31 03:04:19;;;;;;;12.20;3.40;;;2.00;99.90;;;;;;5049283;28;20189;-76
2023/01/31 03:06:53;;;;;;;12.23;4.20;;;1.90;99.90;;;;;;5050746;28;20184;-77
2023/01/31 03:09:59;;;;;;;6.75;3.30;;;2.00;99.90;;;;;;5049636;28;20178;-77
2023/01/31 03:13:19;;;;;;;4.82;3.60;;;2.00;99.90;;;;;;5050031;28;20212;-76
2023/01/31 03:19:12;;;;;;;5.88;3.10;;;2.00;99.90;;;;;;5051078;28;20211;-79
2023/01/31 03:21:48;;;;;;;10.02;4.07;;;2.10;99.90;;;;;;5049965;28;20347;-79
2023/01/31 03:24:16;;;;;;;7.60;2.90;;;2.10;99.90;;;;;;5051232;28;20172;-79
2023/01/31 03:26:42;;;;;;;7.40;2.90;;;2.10;99.90;;;;;;5050062;28;20198;-79
2023/01/31 03:29:12;;;;;;;5.20;3.28;;;2.10;99.90;;;;;;5051536;28;20181;-79
2023/01/31 03:31:42;;;;;;;10.07;3.25;;;2.10;99.90;;;;;;5051115;28;20963;-80
2023/01/31 03:34:11;;;;;;;9.52;2.97;;;2.10;99.90;;;;;;5050312;28;20192;-80
2023/01/31 03:36:50;;;;;;;5.22;3.13;;;2.10;99.90;;;;;;5050233;28;20276;-79
2023/01/31 03:39:27;;;;;;;4.32;3.03;;;2.10;99.90;;;;;;5050805;28;20571;-79
2023/01/31 03:42:08;;;;;;;8.32;3.50;;;2.10;99.90;;;;;;5049131;28;20208;-78
2023/01/31 03:44:39;;;;;;;4.43;2.90;;;2.20;99.90;;;;;;5032841;28;20663;-79
2023/01/31 03:47:30;;;;;;;4.10;2.90;;;2.20;99.90;;;;;;5049124;28;20174;-78
2023/01/31 03:50:01;;;;;;;3.83;3.00;;;2.20;99.90;;;;;;5048904;28;20178;-78
2023/01/31 03:52:33;;;;;;;10.10;3.28;;;2.20;99.90;;;;;;5048950;28;20204;-78
2023/01/31 03:55:12;;;;;;;8.05;2.70;;;2.20;99.90;;;;;;5048881;28;20183;-78
2023/01/31 03:57:40;;;;;;;12.20;3.15;;;2.20;99.90;;;;;;5050226;28;20181;-79
2023/01/31 04:00:10;;;;;;;6.00;2.88;;;2.20;99.90;;;;;;5050002;28;20277;-78
2023/01/31 04:02:37;;;;;;;7.53;3.05;;;2.20;99.90;;;;;;5032687;28;20215;-78
2023/01/31 04:05:11;;;;;;;6.85;3.38;;;2.20;99.90;;;;;;5049081;28;20257;-79
2023/01/31 04:07:38;;;;;;;11.98;2.95;;;2.20;99.90;;;;;;5050202;28;20684;-78
2023/01/31 04:10:11;;;;;;;8.73;3.65;;;2.10;99.90;;;;;;5050419;28;20600;-78
2023/01/31 04:12:37;;;;;;;8.10;3.17;;;2.10;99.90;;;;;;5048682;28;20248;-79
2023/01/31 04:15:06;;;;;;;8.63;3.25;;;2.10;99.90;;;;;;5048761;28;20736;-78
2023/01/31 04:17:32;;;;;;;8.18;3.40;;;2.00;99.90;;;;;;5048870;28;20203;-78
2023/01/31 04:19:58;;;;;;;8.83;2.93;;;2.00;99.90;;;;;;5032098;28;20218;-77
2023/01/31 04:22:24;;;;;;;4.15;2.97;;;2.00;99.90;;;;;;5032444;28;20673;-78
2023/01/31 04:24:50;;;;;;;7.07;2.97;;;2.00;99.90;;;;;;5050284;28;20679;-79
2023/01/31 04:27:15;;;;;;;7.57;3.20;;;1.90;99.90;;;;;;5050006;28;20177;-79
2023/01/31 04:29:41;;;;;;;14.67;4.67;;;1.90;99.90;;;;;;5031995;28;20195;-78
2023/01/31 04:32:06;;;;;;;11.23;3.87;;;1.90;99.90;;;;;;5032235;28;20722;-75
2023/01/31 04:34:32;;;;;;;7.77;3.27;;;2.00;99.90;;;;;;5048824;28;20261;-75
2023/01/31 04:36:58;;;;;;;6.90;3.13;;;2.00;99.90;;;;;;5049961;28;20186;-75
2023/01/31 04:39:23;;;;;;;13.40;3.93;;;2.00;99.90;;;;;;5049918;28;20205;-75
2023/01/31 04:41:49;;;;;;;5.43;3.27;;;2.00;99.90;;;;;;5050263;28;20211;-78
2023/01/31 04:44:15;;;;;;;9.87;3.40;;;1.90;99.90;;;;;;5048730;28;20876;-79
2023/01/31 04:46:41;;;;;;;9.43;3.45;;;1.90;99.90;;;;;;5048990;28;20187;-77
2023/01/31 04:49:07;;;;;;;7.57;3.40;;;1.90;99.90;;;;;;5050018;28;20180;-78
2023/01/31 04:51:33;;;;;;;14.03;3.13;;;1.90;99.90;;;;;;5048304;28;20210;-79
2023/01/31 04:53:58;;;;;;;3.83;3.20;;;1.90;99.90;;;;;;5048299;28;20418;-78
2023/01/31 04:56:24;;;;;;;7.87;3.53;;;1.90;99.90;;;;;;5048362;28;20195;-77
2023/01/31 04:58:50;;;;;;;8.13;2.87;;;1.90;99.90;;;;;;5049569;28;20205;-78
2023/01/31 05:01:15;;;;;;;6.07;2.90;;;1.90;99.90;;;;;;5048054;28;20196;-78
2023/01/31 05:03:41;;;;;;;12.93;3.87;;;1.90;99.90;;;;;;5032049;28;20865;-79
2023/01/31 05:06:07;;;;;;;8.50;3.43;;;1.90;99.90;;;;;;5048488;28;20262;-77
2023/01/31 05:08:33;;;;;;;14.00;2.88;;;2.00;99.90;;;;;;5048358;28;20552;-76
2023/01/31 05:11:00;;;;;;;9.90;3.85;;;2.00;99.90;;;;;;5049450;28;20555;-76
2023/01/31 05:13:26;;;;;;;14.45;3.55;;;2.00;99.90;;;;;;5049062;28;20302;-76
2023/01/31 05:15:53;;;;;;;6.68;3.08;;;2.10;99.90;;;;;;5048042;28;20187;-76
2023/01/31 05:18:18;;;;;;;7.57;4.28;;;2.10;99.90;;;;;;5048967;28;20181;-75
2023/01/31 05:20:44;;;;;;;6.13;3.30;;;2.10;99.90;;;;;;5052666;28;20222;-76
2023/01/31 05:23:10;;;;;;;10.37;3.00;;;2.10;99.90;;;;;;5052936;28;20201;-75
2023/01/31 05:25:36;;;;;;;11.07;3.60;;;2.10;99.90;;;;;;5052860;28;20264;-75
2023/01/31 05:28:03;;;;;;;8.45;3.72;;;2.10;99.90;;;;;;5053250;28;20451;-76
2023/01/31 05:30:29;;;;;;;8.68;3.33;;;2.10;99.90;;;;;;5035293;28;20266;-75
2023/01/31 05:32:55;;;;;;;7.03;3.00;;;2.10;99.90;;;;;;5052878;28;20210;-75
2023/01/31 05:35:20;;;;;;;5.60;2.90;;;2.10;99.90;;;;;;5053195;28;20553;-75
2023/01/31 05:37:46;;;;;;;7.17;2.90;;;2.20;99.90;;;;;;5052645;28;20725;-75
2023/01/31 05:40:14;;;;;;;16.03;3.50;;;2.20;99.90;;;;;;5052730;28;20815;-75
2023/01/31 05:42:40;;;;;;;17.15;3.10;;;2.20;99.90;;;;;;5051475;28;20636;-74
2023/01/31 05:45:08;;;;;;;5.13;2.88;;;2.20;99.90;;;;;;5050941;28;20526;-75
2023/01/31 05:47:33;;;;;;;11.05;3.40;;;2.20;99.90;;;;;;5050756;28;20181;-74
2023/01/31 05:49:59;;;;;;;8.07;3.37;;;2.30;99.90;;;;;;5050881;28;20764;-75
2023/01/31 05:52:25;;;;;;;10.93;3.20;;;2.30;99.90;;;;;;5050872;28;20720;-74
2023/01/31 05:54:50;;;;;;;9.33;3.23;;;2.30;99.90;;;;;;5049563;28;20184;-75
2023/01/31 05:57:16;;;;;;;9.13;3.07;;;2.40;99.90;;;;;;5049183;28;20208;-75
2023/01/31 05:59:42;;;;;;;18.97;3.83;;;2.40;99.90;;;;;;5050461;28;20295;-75
2023/01/31 06:02:10;;;;;;;5.37;3.17;;;2.40;99.90;;;;;;5049616;28;20273;-74
2023/01/31 06:04:36;;;;;;;7.32;3.60;;;2.40;99.90;;;;;;5050569;28;20177;-75
2023/01/31 06:07:02;;;;;;;13.20;3.85;;;2.40;99.90;;;;;;5050535;28;20184;-74
2023/01/31 06:09:27;;;;;;;9.37;3.77;;;2.40;99.90;;;;;;5050618;28;20187;-75
2023/01/31 06:11:53;;;;;;;9.90;3.40;;;2.40;99.90;;;;;;5050273;28;20642;-75
2023/01/31 06:14:19;;;;;;;13.87;3.50;;;2.30;99.90;;;;;;5050563;28;20267;-75
2023/01/31 06:16:44;;;;;;;10.33;3.40;;;2.40;99.90;;;;;;5050483;28;20722;-75
2023/01/31 06:19:10;;;;;;;7.57;3.53;;;2.40;99.90;;;;;;5049016;28;20207;-75
2023/01/31 06:21:35;;;;;;;4.47;2.60;;;2.30;99.90;;;;;;5050335;28;20202;-74
2023/01/31 06:24:01;;;;;;;12.50;3.23;;;2.30;99.90;;;;;;5048854;28;20544;-75
2023/01/31 06:26:27;;;;;;;11.33;3.70;;;2.30;99.90;;;;;;5048585;28;20194;-76
2023/01/31 06:28:52;;;;;;;8.13;3.30;;;2.30;99.90;;;;;;5048655;28;20647;-75
2023/01/31 06:31:18;;;;;;;14.80;3.93;;;2.20;99.90;;;;;;5049948;28;20190;-75
2023/01/31 06:33:44;;;;;;;8.33;3.23;;;2.20;99.90;;;;;;5050060;28;20184;-75
2023/01/31 06:36:09;;;;;;;6.47;3.30;;;2.20;99.90;;;;;;5050145;28;20919;-76
2023/01/31 06:38:35;;;;;;;20.57;3.20;;;2.20;99.90;;;;;;5049829;28;20247;-75
2023/01/31 06:41:01;;;;;;;12.60;3.90;;;2.20;99.90;;;;;;5049880;28;20606;-75
2023/01/31 06:43:26;;;;;;;7.00;2.40;;;2.20;99.90;;;;;;5048225;28;20253;-75
2023/01/31 06:45:52;;;;;;;8.20;3.07;;;2.20;99.90;;;;;;5049795;28;20212;-75
2023/01/31 06:48:19;;;;;;;5.63;2.50;;;2.30;99.90;;;;;;5031317;28;20190;-75
2023/01/31 06:50:45;;;;;;;11.35;2.75;;;2.20;99.90;;;;;;5049830;28;20181;-75
2023/01/31 06:53:11;;;;;;;10.00;3.10;;;2.30;99.90;;;;;;5049758;28;20288;-75
2023/01/31 06:55:37;;;;;;;9.70;3.60;;;2.20;99.90;;;;;;5049808;28;20275;-75
2023/01/31 06:58:03;;;;;;;13.65;3.20;;;2.20;99.90;;;;;;5049718;28;20294;-75
2023/01/31 07:00:29;;;;;;;9.63;3.10;;;2.20;99.90;;;;;;5049252;28;20970;-75
2023/01/31 07:02:55;;;;;;;8.80;3.43;;;2.20;99.90;;;;;;5048121;28;20251;-75
2023/01/31 07:05:21;;;;;;;9.18;3.35;;;2.20;99.90;;;;;;5049445;28;20412;-75
2023/01/31 07:07:48;;;;;;;9.63;2.73;;;2.20;99.90;;;;;;5048824;28;20287;-75
2023/01/31 07:10:14;;;;;;;11.05;2.75;;;2.20;99.90;;;;;;5049112;28;20426;-75
2023/01/31 07:12:40;;;;;;;12.77;3.80;;;2.20;99.90;;;;;;5048976;28;20245;-75
2023/01/31 07:15:07;;;;;;;7.87;4.40;;;2.20;99.90;;;;;;5047241;28;20243;-74
2023/01/31 07:17:32;;;;;;;12.25;3.85;;;2.20;99.90;;;;;;5048919;28;20184;-75
2023/01/31 07:19:58;;;;;;;6.80;3.17;;;2.20;99.90;;;;;;5048755;28;20266;-75
2023/01/31 07:22:24;;;;;;;5.30;3.03;;;2.20;99.90;;;;;;5048515;28;20546;-75
2023/01/31 07:24:50;;;;;;;10.20;3.30;;;2.30;99.90;;;;;;5048688;28;20470;-75
2023/01/31 07:27:15;;;;;;;8.40;3.93;;;2.30;99.90;;;;;;5048749;28;20257;-74
2023/01/31 07:29:42;;;;;;;17.57;4.20;;;2.30;99.90;;;;;;5048717;28;20984;-74
2023/01/31 07:32:08;;;;;;;16.20;4.03;;;2.30;99.90;;;;;;5048139;28;20200;-74
2023/01/31 07:34:33;;;;;;;8.57;3.67;;;2.30;99.90;;;;;;5048415;28;20681;-74
2023/01/31 07:37:00;;;;;;;12.13;3.77;;;2.40;99.90;;;;;;5048520;28;20186;-75
2023/01/31 07:39:26;;;;;;;4.20;2.28;;;2.60;99.90;;;;;;5047116;28;20200;-74
2023/01/31 07:41:51;;;;;;;13.60;4.05;;;2.70;99.90;;;;;;5046433;28;20724;-75
2023/01/31 07:44:17;;;;;;;12.20;3.00;;;2.60;99.90;;;;;;5047447;28;20190;-75
2023/01/31 07:46:43;;;;;;;21.50;5.03;;;2.70;99.90;;;;;;5048587;28;20849;-75
2023/01/31 07:49:11;;;;;;;13.30;3.30;;;2.70;99.90;;;;;;5047301;28;20185;-75
2023/01/31 07:51:37;;;;;;;7.47;2.60;;;2.70;99.90;;;;;;5048462;28;20208;-75
2023/01/31 07:54:04;;;;;;;10.00;2.80;;;2.50;99.90;;;;;;5047617;28;20552;-75
2023/01/31 07:56:30;;;;;;;8.45;3.20;;;2.60;99.90;;;;;;5049257;28;20425;-75
2023/01/31 07:58:55;;;;;;;4.50;2.90;;;2.60;99.90;;;;;;5049015;28;20195;-74
2023/01/31 08:04:10;;;;;;;11.10;3.10;;;2.60;99.90;;;;;;5049178;28;20197;-75
2023/01/31 08:06:37;;;;;;;7.20;3.10;;;2.60;99.90;;;;;;5047590;28;20203;-75
2023/01/31 08:09:02;;;;;;;9.05;2.53;;;2.60;99.90;;;;;;5048465;28;20441;-75
2023/01/31 08:11:28;;;;;;;6.40;2.43;;;2.60;99.90;;;;;;5048687;28;20206;-75
2023/01/31 08:13:54;;;;;;;9.53;3.33;;;2.60;99.90;;;;;;5048415;28;20209;-75
2023/01/31 08:16:20;;;;;;;6.70;2.43;;;2.50;99.90;;;;;;5048637;28;20696;-75
2023/01/31 08:18:47;;;;;;;8.25;2.55;;;2.50;99.90;;;;;;5048519;28;20280;-74
2023/01/31 08:21:14;;;;;;;9.35;3.17;;;2.50;99.90;;;;;;5046957;28;20189;-74
2023/01/31 08:23:40;;;;;;;17.67;3.13;;;2.60;99.90;;;;;;5048341;28;20260;-75
2023/01/31 08:26:14;;;;;;;6.80;2.47;;;2.70;99.90;;;;;;5046993;28;20204;-75
2023/01/31 08:28:40;;;;;;;6.35;2.92;;;2.70;99.90;;;;;;5048641;28;20167;-75
2023/01/31 08:31:11;;;;;;;5.90;2.90;;;2.70;99.90;;;;;;5048390;28;20182;-75
2023/01/31 08:33:37;;;;;;;7.07;2.10;;;2.70;99.90;;;;;;5048373;28;20607;-75
2023/01/31 08:36:10;;;;;;;11.32;2.72;;;2.70;99.90;;;;;;5047158;28;20180;-75
2023/01/31 08:38:35;;;;;;;6.55;3.38;;;2.70;99.90;;;;;;5048750;28;20185;-74
2023/01/31 08:41:01;;;;;;;9.20;3.10;;;2.70;99.90;;;;;;5048668;28;20217;-75
2023/01/31 08:43:26;;;;;;;12.43;3.17;;;2.70;99.90;;;;;;5048635;28;20670;-74
2023/01/31 08:45:52;;;;;;;11.63;3.90;;;2.80;99.90;;;;;;5047424;28;20210;-75
2023/01/31 08:48:18;;;;;;;15.73;3.13;;;2.80;99.90;;;;;;5048775;28;20189;-75
2023/01/31 08:50:43;;;;;;;6.63;2.93;;;2.80;99.90;;;;;;5030631;28;20205;-75
2023/01/31 08:53:09;;;;;;;12.20;3.10;;;3.00;99.90;;;;;;5047971;28;20225;-75
2023/01/31 08:55:35;;;;;;;6.73;2.63;;;3.10;99.90;;;;;;5052569;28;20983;-75
2023/01/31 08:58:02;;;;;;;12.40;3.22;;;3.20;99.90;;;;;;5052518;28;20185;-75
2023/01/31 09:00:28;;;;;;;6.47;2.50;;;3.10;99.90;;;;;;5052310;28;20231;-75
2023/01/31 09:02:55;;;;;;;7.93;2.97;;;3.10;99.90;;;;;;5050782;28;20782;-75
2023/01/31 09:05:22;;;;;;;7.07;3.05;;;3.10;99.90;;;;;;5052045;28;20181;-75
2023/01/31 09:07:48;;;;;;;12.55;3.55;;;3.30;99.90;;;;;;5052357;28;20230;-75
2023/01/31 09:10:14;;;;;;;7.43;2.87;;;3.30;99.90;;;;;;5052089;28;20190;-75
2023/01/31 09:12:39;;;;;;;9.97;2.87;;;3.20;99.90;;;;;;5050542;28;20449;-75
2023/01/31 09:15:05;;;;;;;8.00;2.87;;;3.30;99.90;;;;;;5051976;28;20191;-74
2023/01/31 09:17:31;;;;;;;8.73;2.60;;;3.40;99.90;;;;;;5051960;28;20201;-75
2023/01/31 09:19:57;;;;;;;6.33;2.83;;;3.50;99.90;;;;;;5051440;28;20222;-75
2023/01/31 09:22:23;;;;;;;16.90;3.30;;;3.60;99.90;;;;;;5051745;28;20275;-75
2023/01/31 09:24:49;;;;;;;14.05;3.08;;;3.70;99.90;;;;;;5051948;28;20470;-75
2023/01/31 09:27:14;;;;;;;11.13;2.90;;;4.00;99.90;;;;;;5033877;28;20177;-75
2023/01/31 09:29:40;;;;;;;8.40;2.90;;;4.10;99.90;;;;;;5033946;28;20192;-74
2023/01/31 09:32:06;;;;;;;7.63;2.70;;;4.10;99.90;;;;;;5051912;28;20290;-75
2023/01/31 09:34:32;;;;;;;6.68;2.90;;;4.10;99.90;;;;;;5052044;28;20239;-75
2023/01/31 09:36:58;;;;;;;8.83;3.60;;;4.30;99.90;;;;;;5052119;28;20185;-74
2023/01/31 09:39:24;;;;;;;8.17;3.13;;;4.30;99.90;;;;;;5051777;28;20295;-75
2023/01/31 09:41:57;;;;;;;5.53;2.83;;;4.50;99.90;;;;;;5050277;28;20295;-75
2023/01/31 09:44:39;;;;;;;11.15;3.50;;;4.30;99.90;;;;;;5051856;28;20936;-75
2023/01/31 09:47:08;;;;;;;9.38;3.13;;;4.20;99.90;;;;;;5051612;28;20252;-75
2023/01/31 09:49:48;;;;;;;6.78;2.60;;;4.30;99.90;;;;;;5050015;28;20185;-75
2023/01/31 09:52:14;;;;;;;9.17;3.23;;;4.40;99.90;;;;;;5051338;28;20695;-75
2023/01/31 09:54:40;;;;;;;17.13;3.83;;;4.60;99.90;;;;;;5051417;28;20425;-75
2023/01/31 09:57:39;;;;;;;10.80;2.60;;;4.40;99.90;;;;;;5051261;28;20181;-75
2023/01/31 10:00:29;;;;;;;7.63;3.10;;;4.50;99.90;;;;;;5050885;28;20965;-75
2023/01/31 10:02:55;;;;;;;4.60;2.78;;;4.60;99.90;;;;;;5051129;28;20577;-74
2023/01/31 10:05:36;;;;;;;11.60;3.20;;;4.50;99.90;;;;;;5050392;28;20183;-75
2023/01/31 10:08:04;;;;;;;8.88;2.65;;;4.50;99.90;;;;;;5051169;28;20176;-75
2023/01/31 10:10:35;;;;;;;8.18;2.70;;;4.50;99.90;;;;;;5050834;28;20219;-75
2023/01/31 10:13:24;;;;;;;17.73;3.80;;;4.50;99.90;;;;;;5050504;28;20207;-75
2023/01/31 10:16:11;;;;;;;5.27;3.07;;;4.70;99.90;;;;;;5042846;28;20203;-75
2023/01/31 10:18:42;;;;;;;7.28;2.75;;;4.70;99.90;;;;;;5050756;28;20416;-75
2023/01/31 10:21:12;;;;;;;12.17;3.10;;;4.60;99.90;;;;;;5049331;28;20201;-75
2023/01/31 10:23:43;;;;;;;8.60;2.95;;;4.50;99.90;;;;;;5051431;28;20417;-75
2023/01/31 10:26:11;;;;;;;7.65;2.28;;;4.60;99.90;;;;;;5050600;28;20822;-75
2023/01/31 10:29:01;;;;;;;3.90;2.70;;;4.50;99.90;;;;;;5050529;28;20210;-74
2023/01/31 10:31:40;;;;;;;7.80;2.67;;;4.50;99.90;;;;;;5050191;28;20855;-74
2023/01/31 10:34:18;;;;;;;18.48;3.53;;;4.70;99.90;;;;;;5050440;28;20775;-74
2023/01/31 10:37:12;;;;;;;4.65;2.67;;;4.60;99.90;;;;;;5048612;28;20178;-74
2023/01/31 10:39:54;;;;;;;11.07;3.00;;;4.60;99.90;;;;;;5049740;28;20194;-74
2023/01/31 10:42:31;;;;;;;6.20;2.10;;;4.70;99.90;;;;;;5049569;28;20277;-74
2023/01/31 10:45:22;;;;;;;6.60;2.80;;;4.60;99.90;;;;;;5049717;28;20503;-74
2023/01/31 10:48:03;;;;;;;8.82;2.35;;;4.70;99.90;;;;;;5049455;28;20409;-74
2023/01/31 10:50:38;;;;;;;7.28;2.90;;;4.80;99.90;;;;;;5049488;28;20185;-74
2023/01/31 10:53:21;;;;;;;6.87;2.50;;;4.90;99.90;;;;;;5048746;28;20677;-74
2023/01/31 10:55:58;;;;;;;5.72;1.98;;;4.80;99.90;;;;;;5048629;28;21115;-74
2023/01/31 10:58:24;;;;;;;5.27;1.80;;;4.70;99.90;;;;;;5048813;28;20936;-74
2023/01/31 11:00:50;;;;;;;6.60;2.40;;;4.90;99.90;;;;;;5048207;28;20561;-74
2023/01/31 11:03:16;;;;;;;10.83;2.50;;;6.30;99.90;;;;;;5048475;28;20442;-74
2023/01/31 11:05:52;;;;;;;7.70;2.47;;;7.60;99.90;;;;;;5047189;28;20419;-74
2023/01/31 11:08:49;;;;;;;8.60;2.10;;;7.90;95.60;;;;;;5048765;28;20469;-74
2023/01/31 11:11:20;;;;;;;12.40;2.87;;;8.60;95.00;;;;;;5049001;28;20471;-74
2023/01/31 11:14:06;;;;;;;5.40;2.10;;;9.10;93.40;;;;;;5048620;28;20930;-74
2023/01/31 11:16:37;;;;;;;5.27;2.87;;;9.40;90.60;;;;;;5047910;28;21166;-74
2023/01/31 11:19:27;;;;;;;9.30;2.70;;;8.80;90.50;;;;;;5048509;28;20464;-74
2023/01/31 11:21:53;;;;;;;8.20;2.87;;;9.00;92.30;;;;;;5048524;28;20924;-74
2023/01/31 11:24:22;;;;;;;7.73;3.00;;;9.60;91.70;;;;;;5048510;28;20934;-74
2023/01/31 11:26:51;;;;;;;4.00;1.90;;;9.90;90.40;;;;;;5048525;28;20999;-75
2023/01/31 11:29:24;;;;;;;11.67;3.27;;;9.40;87.60;;;;;;5048331;28;20923;-75
2023/01/31 11:31:51;;;;;;;10.00;3.00;;;9.00;89.70;;;;;;5048362;28;21275;-75
2023/01/31 11:34:36;;;;;;;7.80;2.20;;;8.60;90.80;;;;;;5046714;28;20927;-75
2023/01/31 11:37:14;;;;;;;4.50;2.40;;;8.20;90.60;;;;;;5048370;28;20415;-74
2023/01/31 11:39:39;;;;;;;5.80;1.90;;;8.00;91.40;;;;;;5048465;28;20528;-74
2023/01/31 11:42:15;;;;;;;7.33;2.37;;;8.10;91.80;;;;;;5048448;28;21354;-74
2023/01/31 11:45:03;;;;;;;5.90;1.90;;;8.00;91.50;;;;;;5046982;28;20425;-75
2023/01/31 11:47:38;;;;;;;4.00;1.97;;;8.30;91.20;;;;;;5048533;28;20419;-74
2023/01/31 11:50:04;;;;;;;6.50;2.93;;;8.40;91.20;;;;;;5048180;28;20502;-75
2023/01/31 11:52:34;;;;;;;7.47;2.10;;;8.10;91.70;;;;;;5047796;28;20443;-74
2023/01/31 11:55:05;;;;;;;10.23;3.10;;;7.80;92.50;;;;;;5047992;28;20418;-75
2023/01/31 11:57:36;;;;;;;9.57;3.13;;;7.60;93.10;;;;;;5048046;28;20755;-74
2023/01/31 12:00:17;;;;;;;11.70;3.50;;;7.50;94.10;;;;;;5047541;28;21067;-74
2023/01/31 12:02:42;;;;;;;9.03;2.17;;;7.40;93.60;;;;;;5048019;28;20442;-75
2023/01/31 12:05:11;;;;;;;10.73;2.97;;;7.40;93.10;;;;;;5047795;28;20429;-75
2023/01/31 12:07:48;;;;;;;5.77;2.23;;;8.10;95.00;;;;;;5046901;28;20203;-74
2023/01/31 12:10:35;;;;;;;6.90;2.23;;;8.10;93.50;;;;;;5048037;28;20453;-74
2023/01/31 12:13:11;;;;;;;5.77;2.00;;;7.90;93.50;;;;;;5047422;28;20434;-75
2023/01/31 12:16:04;;;;;;;6.73;2.00;;;7.50;93.70;;;;;;5047802;28;20520;-74
2023/01/31 12:18:50;;;;;;;4.83;1.87;;;7.30;94.10;;;;;;5047666;28;20418;-74
2023/01/31 12:21:21;;;;;;;3.77;1.53;;;6.80;93.50;;;;;;5047462;28;20487;-74
2023/01/31 12:24:09;;;;;;;5.10;2.20;;;6.50;95.40;;;;;;5047582;28;20407;-74
2023/01/31 12:26:56;;;;;;;4.77;1.73;;;6.40;96.50;;;;;;5047647;28;20410;-74
2023/01/31 12:29:55;;;;;;;5.73;1.77;;;6.40;97.00;;;;;;5046181;28;20509;-74
2023/01/31 12:32:38;;;;;;;6.27;2.60;;;6.20;97.70;;;;;;5047192;28;20438;-74
2023/01/31 12:35:27;;;;;;;8.33;2.10;;;6.20;99.10;;;;;;5047402;28;20970;-74
2023/01/31 12:38:06;;;;;;;10.33;2.00;;;6.20;99.20;;;;;;5047329;28;20421;-74
2023/01/31 12:40:54;;;;;;;3.63;1.90;;;6.10;98.90;;;;;;5047608;28;20910;-74
2023/01/31 12:43:53;;;;;;;5.83;2.17;;;6.20;99.10;;;;;;5047601;28;20533;-75
2023/01/31 12:46:31;;;;;;;6.10;2.73;;;6.20;99.20;;;;;;5047638;28;20409;-75
2023/01/31 12:49:11;;;;;;;6.30;2.00;;;6.10;98.90;;;;;;5048086;28;20413;-75
2023/01/31 12:52:05;;;;;;;4.73;2.10;;;6.10;98.70;;;;;;5047870;28;20567;-74
2023/01/31 12:54:58;;;;;;;7.53;2.20;;;6.10;98.90;;;;;;5047245;28;20414;-75
2023/01/31 12:57:50;;;;;;;7.53;2.27;;;5.90;98.40;;;;;;5045651;28;20429;-74
2023/01/31 13:00:41;;;;;;;5.23;2.10;;;6.00;99.40;;;;;;5030481;28;20481;-74
2023/01/31 13:03:40;;;;;;;7.63;1.60;;;6.00;99.50;;;;;;5046948;28;20517;-74
2023/01/31 13:06:14;;;;;;;4.37;2.13;;;5.90;99.10;;;;;;5046958;28;20914;-74
2023/01/31 13:08:43;;;;;;;10.23;3.00;;;5.80;99.60;;;;;;5046938;28;20417;-74
2023/01/31 13:11:12;;;;;;;5.30;2.17;;;5.80;99.70;;;;;;5045620;28;20406;-75
2023/01/31 13:13:44;;;;;;;4.10;1.67;;;5.80;99.20;;;;;;5047321;28;20425;-75
2023/01/31 13:16:21;;;;;;;13.50;2.43;;;5.80;99.00;;;;;;5047243;28;20410;-74
2023/01/31 13:18:50;;;;;;;4.90;1.60;;;5.60;99.40;;;;;;5045619;28;20464;-74
2023/01/31 13:21:20;;;;;;;5.53;2.25;;;5.70;99.00;;;;;;5045739;28;20202;-74
2023/01/31 13:23:52;;;;;;;7.33;2.20;;;5.70;99.50;;;;;;5047203;28;20195;-74
2023/01/31 13:26:22;;;;;;;10.50;1.87;;;5.50;98.30;;;;;;5047117;28;20445;-74